Orenburg, Russia
Current Conditions -  °F | °C
As of 4:00 PM on Saturday 25 Oct 2014 (Local Time) from UWOO Reporting Station
Overcast Overcast  
Wind Chill:   Ceiling: 2100
Heat Index: 21°   Visibility: 3mi
Dew Point:   Wind: 13mph
Humidity: 58%   Direction: 320°NW
Pressure: 30.18"   Gusts: NA
Location:  51.78°N, 55.1°E
Report Text: UWOO 251100Z 32006MPS P5000 OVC021CB M06/M13 Q1022 26490238NOSIG RMK QFE756/1008
Loading
Personal Weather Stations






























Interactive Weather Map
Tropical Storm Tracking
New forecast layout! Learn more

10-Day Weather Forecast

Advertisements
Track Severe Weather on mobile